Time;durP1;ratioP1;P1;durP2;ratioP2;P2;SDS_P1;SDS_P2;PMS_P1;PMS_P2;Temp;Humidity;BMP_temperature;BMP_pressure;BME280_temperature;BME280_humidity;BME280_pressure;Samples;Min_cycle;Max_cycle;Signal;HPM_P1;HPM_P2
2024/01/01 00:01:56;;;;;;;120.43;65.07;;;;;;;7.99;89.33;99675.97;5034792;28;20201;-61
2024/01/01 00:04:26;;;;;;;117.40;63.23;;;;;;;8.00;88.79;99677.66;5034503;28;20676;-63
2024/01/01 00:06:53;;;;;;;114.80;64.63;;;;;;;7.99;88.35;99668.03;5034574;28;20205;-61
2024/01/01 00:09:19;;;;;;;108.67;66.57;;;;;;;7.97;88.28;99667.41;5034636;28;20665;-61
2024/01/01 00:11:46;;;;;;;107.73;62.27;;;;;;;7.92;88.33;99670.56;5034900;28;20228;-63
2024/01/01 00:14:13;;;;;;;109.10;62.93;;;;;;;7.92;88.03;99672.41;5034518;28;20193;-60
2024/01/01 00:16:40;;;;;;;114.87;65.13;;;;;;;7.89;88.49;99672.75;5034432;28;20709;-60
2024/01/01 00:19:07;;;;;;;115.33;63.97;;;;;;;7.83;88.21;99671.63;5034432;28;20207;-60
2024/01/01 00:21:35;;;;;;;115.70;65.43;;;;;;;7.80;88.86;99669.31;5034535;28;20228;-61
2024/01/01 00:24:02;;;;;;;110.47;62.77;;;;;;;7.81;89.99;99672.78;5034720;28;20252;-59
2024/01/01 00:26:29;;;;;;;113.20;62.20;;;;;;;7.79;88.78;99674.78;5034748;28;20201;-61
2024/01/01 00:28:55;;;;;;;111.40;64.37;;;;;;;7.76;89.10;99672.50;5033133;28;20229;-61
2024/01/01 00:31:22;;;;;;;112.33;65.67;;;;;;;7.76;88.97;99670.66;5034396;28;20236;-61
2024/01/01 00:33:49;;;;;;;120.77;66.00;;;;;;;7.75;89.20;99673.47;5033585;28;20627;-61
2024/01/01 00:36:15;;;;;;;122.53;68.90;;;;;;;7.74;90.02;99671.84;5034369;28;20251;-61
2024/01/01 00:38:44;;;;;;;227.30;114.73;;;;;;;7.71;89.55;99667.72;5034227;28;20304;-61
2024/01/01 00:41:14;;;;;;;224.40;108.73;;;;;;;7.62;90.16;99673.22;5034156;28;20674;-60
2024/01/01 00:43:43;;;;;;;180.13;93.93;;;;;;;7.60;90.90;99664.66;5031870;28;20549;-60
2024/01/01 00:46:09;;;;;;;160.20;87.30;;;;;;;7.45;90.41;99655.78;5013330;28;20248;-61
2024/01/01 00:48:36;;;;;;;141.27;78.67;;;;;;;7.49;90.58;99670.31;5013217;28;20198;-60
2024/01/01 00:51:03;;;;;;;131.80;74.63;;;;;;;7.45;92.57;99667.19;5013678;28;20294;-61
2024/01/01 00:53:29;;;;;;;134.10;81.93;;;;;;;7.50;92.22;99659.56;5013812;28;20201;-61
2024/01/01 00:55:58;;;;;;;147.23;80.77;;;;;;;7.52;91.93;99670.78;5014033;28;20194;-60
2024/01/01 00:58:24;;;;;;;339.40;154.50;;;;;;;7.51;90.97;99665.69;5014142;28;20194;-62
2024/01/01 01:00:51;;;;;;;327.43;147.27;;;;;;;7.53;91.05;99675.09;5014211;28;20206;-62
2024/01/01 01:03:18;;;;;;;278.00;125.97;;;;;;;7.53;90.47;99664.53;5013803;28;20194;-61
2024/01/01 01:05:44;;;;;;;188.73;94.10;;;;;;;7.53;91.03;99655.75;5014241;28;20209;-61
2024/01/01 01:08:11;;;;;;;137.97;78.37;;;;;;;7.51;90.20;99650.63;5013580;28;20195;-62
2024/01/01 01:10:38;;;;;;;133.07;72.23;;;;;;;7.47;90.95;99645.88;5014018;28;20276;-61
2024/01/01 01:13:06;;;;;;;127.93;72.43;;;;;;;7.42;90.99;99650.84;5013510;28;20252;-61
2024/01/01 01:15:34;;;;;;;130.30;70.50;;;;;;;7.44;91.33;99648.88;5013647;28;20739;-61
2024/01/01 01:18:00;;;;;;;133.27;71.30;;;;;;;7.45;90.38;99650.50;5013448;28;20194;-61
2024/01/01 01:20:27;;;;;;;134.10;73.07;;;;;;;7.34;90.99;99627.09;5013880;28;20202;-60
2024/01/01 01:22:54;;;;;;;122.57;69.10;;;;;;;7.42;90.56;99645.56;5013413;28;20665;-62
2024/01/01 01:25:21;;;;;;;111.53;67.93;;;;;;;7.38;89.92;99641.63;5013510;28;20196;-62
2024/01/01 01:27:47;;;;;;;117.07;65.07;;;;;;;7.32;90.27;99640.50;5013306;28;20554;-62
2024/01/01 01:30:16;;;;;;;124.77;68.53;;;;;;;7.31;90.46;99638.84;5013656;28;20225;-62
2024/01/01 01:32:42;;;;;;;114.70;63.97;;;;;;;7.32;90.50;99634.38;5013631;28;20283;-62
2024/01/01 01:35:09;;;;;;;119.77;67.77;;;;;;;7.27;90.15;99632.25;5031031;28;20327;-61
2024/01/01 01:37:36;;;;;;;128.17;68.47;;;;;;;7.23;90.93;99630.94;5032908;28;20653;-61
2024/01/01 01:40:03;;;;;;;120.83;70.20;;;;;;;7.22;91.13;99633.78;5033240;28;20255;-61
2024/01/01 01:42:30;;;;;;;123.07;70.27;;;;;;;7.17;90.33;99633.44;5032967;28;20204;-62
2024/01/01 01:44:57;;;;;;;121.80;70.37;;;;;;;7.12;90.70;99636.63;5033067;28;20193;-62
2024/01/01 01:47:27;;;;;;;116.30;68.60;;;;;;;7.06;90.20;99633.84;5032640;28;20247;-62
2024/01/01 01:49:54;;;;;;;124.57;68.57;;;;;;;6.97;90.74;99634.84;5032525;28;20657;-62
2024/01/01 01:52:22;;;;;;;126.20;68.63;;;;;;;6.88;91.56;99630.56;5032720;28;20205;-62
2024/01/01 01:54:51;;;;;;;111.07;65.50;;;;;;;6.88;91.92;99631.41;5032519;28;20239;-61
2024/01/01 01:57:18;;;;;;;114.00;66.10;;;;;;;6.89;91.35;99629.56;5032253;28;20204;-61
2024/01/01 01:59:46;;;;;;;123.20;67.70;;;;;;;6.89;91.87;99638.34;5032416;28;20193;-61
2024/01/01 02:02:13;;;;;;;131.80;71.13;;;;;;;6.89;91.58;99627.78;5032501;28;20212;-62
2024/01/01 02:04:41;;;;;;;137.70;73.23;;;;;;;6.88;90.98;99627.94;5032642;28;20259;-60
2024/01/01 02:07:08;;;;;;;135.90;74.97;;;;;;;6.84;91.27;99622.19;5032314;28;20601;-62
2024/01/01 02:09:35;;;;;;;122.13;66.80;;;;;;;6.85;91.50;99615.06;5032473;28;20196;-61
2024/01/01 02:12:01;;;;;;;115.77;66.90;;;;;;;6.83;91.37;99619.72;5032434;28;20658;-62
2024/01/01 02:14:29;;;;;;;112.40;66.60;;;;;;;6.84;92.02;99618.69;5032403;28;20192;-61
2024/01/01 02:16:55;;;;;;;123.37;68.10;;;;;;;6.80;90.77;99615.59;5032503;28;20196;-61
2024/01/01 02:19:24;;;;;;;117.30;66.77;;;;;;;6.81;90.15;99619.88;5032345;28;20191;-60
2024/01/01 02:21:54;;;;;;;120.83;65.53;;;;;;;6.77;90.82;99618.56;5032105;28;20201;-61
2024/01/01 02:24:22;;;;;;;114.10;66.33;;;;;;;6.72;90.86;99614.78;5032218;28;20679;-61
2024/01/01 02:26:49;;;;;;;124.33;64.87;;;;;;;6.70;90.54;99611.50;5032339;28;20197;-61
2024/01/01 02:29:16;;;;;;;114.03;66.20;;;;;;;6.68;90.86;99605.53;5032036;28;20754;-62
2024/01/01 02:31:44;;;;;;;116.33;65.80;;;;;;;6.67;91.53;99606.53;5032187;28;20272;-61
2024/01/01 02:34:11;;;;;;;114.53;66.73;;;;;;;6.67;91.90;99611.81;5032070;28;20193;-62
2024/01/01 02:36:38;;;;;;;111.63;64.43;;;;;;;6.65;91.66;99604.06;5031748;28;20695;-62
2024/01/01 02:39:06;;;;;;;104.90;64.70;;;;;;;6.62;90.78;99607.03;5031945;28;20193;-61
2024/01/01 02:41:36;;;;;;;109.70;63.27;;;;;;;6.63;91.03;99613.16;5031963;28;20199;-61
2024/01/01 02:44:03;;;;;;;112.70;66.60;;;;;;;6.56;91.82;99610.34;5031835;28;20199;-61
2024/01/01 02:46:30;;;;;;;112.37;63.03;;;;;;;6.51;91.88;99596.84;5031944;28;20199;-62
2024/01/01 02:48:57;;;;;;;114.67;64.03;;;;;;;6.21;90.79;99547.41;5031830;28;20201;-62
2024/01/01 02:51:23;;;;;;;112.07;64.37;;;;;;;6.51;91.21;99601.28;5031891;28;20288;-61
2024/01/01 02:53:50;;;;;;;117.37;63.53;;;;;;;6.45;91.22;99596.69;5031447;28;20734;-60
2024/01/01 02:56:17;;;;;;;112.77;66.20;;;;;;;6.43;91.50;99594.22;5031854;28;20251;-61
2024/01/01 02:58:45;;;;;;;111.47;62.13;;;;;;;6.42;90.83;99591.75;5031338;28;20208;-60
2024/01/01 03:01:12;;;;;;;114.27;61.73;;;;;;;6.39;91.35;99585.00;5031745;28;20196;-61
2024/01/01 03:03:39;;;;;;;117.13;66.33;;;;;;;6.35;91.16;99582.84;5031750;28;20278;-61
2024/01/01 03:06:06;;;;;;;116.37;67.63;;;;;;;6.33;91.52;99583.00;5031798;28;20254;-62
2024/01/01 03:08:36;;;;;;;116.47;65.80;;;;;;;6.31;91.57;99585.00;5031687;28;20193;-61
2024/01/01 03:11:04;;;;;;;109.67;63.83;;;;;;;6.31;92.04;99581.53;5031858;28;20221;-61
2024/01/01 03:13:30;;;;;;;115.53;65.87;;;;;;;6.23;92.08;99579.75;5031224;28;20261;-62
2024/01/01 03:15:59;;;;;;;119.23;65.63;;;;;;;6.20;91.52;99579.25;5031342;28;20686;-61
2024/01/01 03:18:26;;;;;;;117.77;67.70;;;;;;;6.17;92.50;99583.06;5031574;28;20195;-62
2024/01/01 03:20:52;;;;;;;115.83;66.47;;;;;;;6.11;93.08;99573.16;5031258;28;20250;-62
2024/01/01 03:23:19;;;;;;;114.37;63.60;;;;;;;6.16;92.81;99575.31;5031805;28;20224;-61
2024/01/01 03:25:46;;;;;;;116.07;65.90;;;;;;;6.15;92.47;99589.44;5031231;28;20197;-61
2024/01/01 03:28:13;;;;;;;123.77;71.30;;;;;;;6.14;92.60;99574.63;5031131;28;20201;-61
2024/01/01 03:30:39;;;;;;;113.57;65.80;;;;;;;6.07;92.83;99571.00;5031236;28;20342;-61
2024/01/01 03:33:07;;;;;;;127.37;69.43;;;;;;;6.12;93.01;99568.72;5031596;28;20346;-62
2024/01/01 03:35:34;;;;;;;122.27;66.27;;;;;;;6.04;92.60;99566.06;5031298;28;20201;-62
2024/01/01 03:38:01;;;;;;;116.07;65.00;;;;;;;5.90;93.01;99567.56;5017890;28;20197;-62
2024/01/01 03:40:29;;;;;;;123.57;65.60;;;;;;;5.85;93.25;99563.75;5011632;28;20197;-61
2024/01/01 03:42:56;;;;;;;111.67;64.23;;;;;;;5.87;93.73;99569.72;5011599;28;20201;-61
2024/01/01 03:45:22;;;;;;;117.10;65.87;;;;;;;5.86;93.74;99568.88;5011708;28;20193;-61
2024/01/01 03:47:49;;;;;;;114.10;63.77;;;;;;;5.81;93.78;99554.53;5011413;28;20720;-61
2024/01/01 03:50:19;;;;;;;115.27;65.63;;;;;;;5.74;92.35;99567.50;5011567;28;20629;-61
2024/01/01 03:52:46;;;;;;;116.37;66.00;;;;;;;5.75;92.64;99567.34;5011262;28;20251;-63
2024/01/01 03:55:15;;;;;;;115.77;67.00;;;;;;;5.79;93.14;99573.94;5011503;28;20257;-62
2024/01/01 03:57:42;;;;;;;119.43;67.83;;;;;;;5.82;93.41;99561.44;5011575;28;20633;-62
2024/01/01 04:00:11;;;;;;;121.77;68.63;;;;;;;5.82;93.67;99572.00;5011406;28;20581;-62
2024/01/01 04:02:39;;;;;;;120.23;67.23;;;;;;;5.84;93.35;99572.66;5011597;28;20288;-62
2024/01/01 04:05:06;;;;;;;119.00;67.33;;;;;;;5.83;92.88;99568.38;5011511;28;20281;-62
2024/01/01 04:07:35;;;;;;;126.67;66.80;;;;;;;5.78;92.66;99571.47;5011215;28;20735;-62
2024/01/01 04:10:03;;;;;;;127.40;69.20;;;;;;;5.78;93.09;99568.84;5011452;28;20202;-61
2024/01/01 04:12:30;;;;;;;123.87;65.23;;;;;;;5.79;93.25;99573.94;5011431;28;20283;-61
2024/01/01 04:14:56;;;;;;;119.47;67.70;;;;;;;5.77;92.20;99578.53;5011135;28;20257;-61
2024/01/01 04:17:23;;;;;;;113.80;64.97;;;;;;;5.69;92.28;99575.91;5011469;28;20190;-61
2024/01/01 04:19:50;;;;;;;119.23;67.67;;;;;;;5.69;93.18;99573.25;5011480;28;20190;-61
2024/01/01 04:22:18;;;;;;;117.70;67.40;;;;;;;5.69;92.74;99568.00;5013864;28;20202;-61
2024/01/01 04:24:46;;;;;;;122.37;67.97;;;;;;;5.68;91.99;99563.72;5014959;28;20281;-62
2024/01/01 04:27:13;;;;;;;129.00;65.40;;;;;;;5.67;92.21;99559.44;5014897;28;20199;-60
2024/01/01 04:29:39;;;;;;;115.67;61.53;;;;;;;5.68;91.99;99560.28;5015025;28;20261;-60
2024/01/01 04:32:07;;;;;;;119.70;64.27;;;;;;;5.68;92.23;99560.28;5014784;28;20222;-61
2024/01/01 04:34:33;;;;;;;122.27;65.90;;;;;;;5.65;92.29;99557.97;5014959;28;20705;-61
2024/01/01 04:37:01;;;;;;;113.77;65.97;;;;;;;5.59;92.99;99567.34;5020172;28;20213;-60
2024/01/01 04:39:28;;;;;;;102.20;61.83;;;;;;;5.55;93.43;99560.75;5034448;28;20189;-62
2024/01/01 04:41:56;;;;;;;100.80;60.17;;;;;;;5.51;93.47;99553.31;5034366;28;20264;-60
2024/01/01 04:44:23;;;;;;;102.83;58.27;;;;;;;5.50;93.81;99559.56;5034117;28;20259;-60
2024/01/01 04:46:49;;;;;;;91.90;53.17;;;;;;;5.43;94.12;99556.75;5034306;28;20285;-61
2024/01/01 04:49:16;;;;;;;92.70;52.47;;;;;;;5.40;95.18;99557.09;5033989;28;20256;-61
2024/01/01 04:51:43;;;;;;;85.43;49.43;;;;;;;5.34;95.46;99547.22;5034387;28;20228;-62
2024/01/01 04:54:09;;;;;;;83.53;47.67;;;;;;;5.21;95.23;99556.56;5033962;28;20199;-63
2024/01/01 04:56:36;;;;;;;87.43;47.60;;;;;;;5.22;97.30;99553.75;5034032;28;20201;-62
2024/01/01 04:59:06;;;;;;;81.73;47.37;;;;;;;5.30;97.63;99551.16;5034380;28;20194;-60
2024/01/01 05:01:33;;;;;;;83.43;45.50;;;;;;;5.34;97.13;99547.22;5033634;28;20270;-60
2024/01/01 05:03:59;;;;;;;75.47;46.40;;;;;;;5.37;96.44;99546.91;5034017;28;20249;-62
2024/01/01 05:06:26;;;;;;;75.97;45.53;;;;;;;5.40;95.87;99541.28;5033600;28;20247;-61
2024/01/01 05:08:53;;;;;;;79.47;45.33;;;;;;;5.43;95.39;99551.50;5034024;28;20263;-61
2024/01/01 05:11:20;;;;;;;76.93;47.10;;;;;;;5.43;94.68;99551.50;5033712;28;20294;-60
2024/01/01 05:13:46;;;;;;;71.47;43.57;;;;;;;5.46;94.98;99551.19;5033746;28;20248;-61
2024/01/01 05:16:14;;;;;;;70.30;43.17;;;;;;;5.47;94.50;99552.81;5033738;28;20256;-60
2024/01/01 05:18:41;;;;;;;74.50;48.67;;;;;;;5.48;94.18;99551.84;5033844;28;20632;-61
2024/01/01 05:21:08;;;;;;;77.10;49.10;;;;;;;5.48;93.82;99543.94;5033538;28;20251;-60
2024/01/01 05:23:35;;;;;;;78.30;45.90;;;;;;;5.52;94.31;99544.44;5033707;28;20200;-60
2024/01/01 05:26:03;;;;;;;67.47;42.67;;;;;;;5.53;93.70;99543.44;5033467;28;20221;-61
2024/01/01 05:28:29;;;;;;;66.63;41.30;;;;;;;5.53;93.87;99535.56;5033549;28;20234;-61
2024/01/01 05:30:56;;;;;;;65.63;39.63;;;;;;;5.49;93.39;99539.50;5033091;28;20194;-61
2024/01/01 05:33:24;;;;;;;64.47;40.77;;;;;;;5.46;93.96;99535.38;5032017;28;20646;-60
2024/01/01 05:35:51;;;;;;;67.47;41.50;;;;;;;5.40;94.11;99538.66;5033304;28;20194;-61
2024/01/01 05:38:19;;;;;;;68.63;41.10;;;;;;;5.38;94.06;99540.63;5017094;28;20249;-62
2024/01/01 05:40:46;;;;;;;69.20;42.47;;;;;;;5.34;93.83;99536.69;5013516;28;20289;-61
2024/01/01 05:43:12;;;;;;;70.70;42.00;;;;;;;5.36;93.79;99539.97;5013628;28;20285;-61
2024/01/01 05:45:39;;;;;;;65.80;40.60;;;;;;;5.37;93.57;99536.34;5013445;28;20206;-60
2024/01/01 05:48:07;;;;;;;71.37;42.17;;;;;;;5.32;92.94;99533.38;5013142;28;20271;-62
2024/01/01 05:50:35;;;;;;;67.30;41.50;;;;;;;5.32;93.50;99543.91;5012966;28;20720;-61
2024/01/01 05:53:01;;;;;;;66.87;40.07;;;;;;;5.33;93.40;99539.47;5013199;28;20218;-61
2024/01/01 05:55:28;;;;;;;70.37;41.93;;;;;;;5.33;93.40;99529.78;5012876;28;20670;-61
2024/01/01 05:57:55;;;;;;;71.40;41.43;;;;;;;5.34;93.68;99534.03;5013515;28;20195;-61
2024/01/01 06:00:21;;;;;;;65.27;39.80;;;;;;;5.36;93.46;99539.16;5012813;28;20194;-62
2024/01/01 06:02:48;;;;;;;67.10;40.87;;;;;;;5.37;93.44;99535.53;5012825;28;20201;-62
2024/01/01 06:05:15;;;;;;;70.70;41.60;;;;;;;5.38;92.48;99537.16;5012801;28;20622;-62
2024/01/01 06:07:43;;;;;;;70.70;43.47;;;;;;;5.39;92.92;99546.69;5012637;28;20661;-61
2024/01/01 06:10:10;;;;;;;67.37;40.50;;;;;;;5.39;92.95;99542.28;5013216;28;20199;-62
2024/01/01 06:12:37;;;;;;;65.93;40.30;;;;;;;5.41;93.18;99542.13;5012472;28;20222;-61
2024/01/01 06:15:04;;;;;;;65.67;41.60;;;;;;;5.44;93.25;99542.59;5012950;28;20249;-62
2024/01/01 06:17:31;;;;;;;62.77;39.27;;;;;;;5.39;92.56;99538.81;5012841;28;20265;-62
2024/01/01 06:19:57;;;;;;;67.43;40.80;;;;;;;5.34;92.10;99541.94;5012515;28;20190;-61
2024/01/01 06:22:24;;;;;;;70.87;41.53;;;;;;;5.25;93.11;99535.00;5012374;28;20199;-61
2024/01/01 06:24:52;;;;;;;68.50;38.93;;;;;;;5.38;93.77;99538.00;5012712;28;20194;-60
2024/01/01 06:27:19;;;;;;;65.40;38.90;;;;;;;5.45;93.55;99539.00;5012570;28;20199;-62
2024/01/01 06:29:46;;;;;;;72.00;40.03;;;;;;;5.57;94.07;99540.31;5012793;28;20234;-62
2024/01/01 06:32:12;;;;;;;70.23;40.87;;;;;;;5.74;93.64;99544.63;5012749;28;20390;-61
2024/01/01 06:34:39;;;;;;;69.10;40.13;;;;;;;5.87;92.79;99540.72;5012598;28;20243;-61
2024/01/01 06:37:07;;;;;;;59.43;36.87;;;;;;;6.06;93.05;99543.00;5018431;28;20189;-62
2024/01/01 06:39:34;;;;;;;61.93;36.30;;;;;;;6.19;91.67;99548.56;5032222;28;20197;-60
2024/01/01 06:42:02;;;;;;;64.67;39.30;;;;;;;6.31;90.85;99548.06;5032112;28;20198;-60
2024/01/01 06:44:29;;;;;;;62.10;39.63;;;;;;;6.45;91.39;99546.56;5031583;28;20660;-60
2024/01/01 06:46:56;;;;;;;62.00;38.13;;;;;;;6.64;90.88;99554.94;5032013;28;20265;-60
2024/01/01 06:49:23;;;;;;;60.23;37.63;;;;;;;6.79;89.88;99555.03;5032044;28;20193;-60
2024/01/01 06:51:51;;;;;;;62.87;37.87;;;;;;;6.84;88.38;99560.63;5031875;28;20206;-61
2024/01/01 06:54:18;;;;;;;56.53;35.03;;;;;;;6.87;87.50;99560.28;5031705;28;20287;-61
2024/01/01 06:56:45;;;;;;;48.13;32.70;;;;;;;6.75;88.54;99566.94;5031839;28;20252;-60
2024/01/01 06:59:14;;;;;;;55.17;34.73;;;;;;;6.84;90.28;99563.25;5027058;28;20197;-60
2024/01/01 07:01:42;;;;;;;45.07;30.97;;;;;;;6.93;89.12;99564.88;5022202;28;20664;-61
2024/01/01 07:04:09;;;;;;;43.50;30.10;;;;;;;6.82;88.65;99574.00;5020669;28;20269;-61
2024/01/01 07:06:36;;;;;;;53.00;34.80;;;;;;;6.92;89.37;99572.00;5020840;28;20185;-61
2024/01/01 07:09:03;;;;;;;51.37;34.53;;;;;;;6.82;87.93;99565.28;5022503;28;20191;-61
2024/01/01 07:11:30;;;;;;;51.60;32.60;;;;;;;6.77;89.53;99562.31;5026527;28;20195;-61
2024/01/01 07:13:56;;;;;;;60.57;35.10;;;;;;;6.82;88.74;99573.19;5031665;28;20219;-61
2024/01/01 07:16:24;;;;;;;55.33;36.30;;;;;;;6.87;88.82;99561.13;5031478;28;20197;-61
2024/01/01 07:18:51;;;;;;;51.37;34.53;;;;;;;6.89;88.47;99553.84;5031653;28;20194;-61
2024/01/01 07:21:18;;;;;;;55.47;35.27;;;;;;;6.96;89.36;99551.34;5031477;28;20254;-62
2024/01/01 07:23:44;;;;;;;54.80;34.00;;;;;;;7.16;89.38;99552.56;5031387;28;20200;-62
2024/01/01 07:26:11;;;;;;;53.80;33.90;;;;;;;7.50;88.40;99548.56;5031747;28;20251;-62
2024/01/01 07:28:38;;;;;;;49.73;31.83;;;;;;;7.82;86.06;99552.81;5031052;28;20703;-62
2024/01/01 07:31:05;;;;;;;42.67;29.67;;;;;;;8.11;84.81;99563.47;5031632;28;20213;-62
2024/01/01 07:33:34;;;;;;;34.13;25.60;;;;;;;8.21;83.28;99570.19;5031038;28;20736;-62
2024/01/01 07:36:01;;;;;;;32.10;22.70;;;;;;;8.24;82.67;99558.41;5031534;28;20198;-62
2024/01/01 07:38:28;;;;;;;32.63;22.73;;;;;;;8.30;82.99;99560.38;5014082;28;20225;-60
2024/01/01 07:40:55;;;;;;;29.53;22.30;;;;;;;8.50;80.21;99561.50;5011759;28;20247;-61
2024/01/01 07:43:22;;;;;;;30.17;21.30;;;;;;;8.75;81.25;99557.59;5011330;28;20228;-60
2024/01/01 07:45:49;;;;;;;29.63;21.43;;;;;;;8.85;79.60;99560.75;5011672;28;20190;-61
2024/01/01 07:48:16;;;;;;;26.60;20.53;;;;;;;8.87;78.77;99566.72;5011387;28;20657;-60
2024/01/01 07:50:44;;;;;;;25.57;20.83;;;;;;;8.87;78.94;99561.41;5011522;28;20202;-60
2024/01/01 07:53:10;;;;;;;36.43;24.67;;;;;;;8.87;78.46;99561.41;5011375;28;20271;-61
2024/01/01 07:55:37;;;;;;;33.60;23.10;;;;;;;8.95;80.01;99548.06;5011376;28;20728;-60
2024/01/01 07:58:05;;;;;;;33.00;23.63;;;;;;;9.26;78.70;99546.84;5015101;28;20627;-61
2024/01/01 08:00:31;;;;;;;30.07;23.97;;;;;;;9.61;77.41;99539.88;5015155;28;20226;-61
2024/01/01 08:02:58;;;;;;;35.40;23.97;;;;;;;9.94;75.23;99546.31;5014998;28;20202;-61
2024/01/01 08:05:25;;;;;;;33.03;25.13;;;;;;;10.20;74.34;99549.22;5015342;28;20230;-61
2024/01/01 08:07:57;;;;;;;32.23;24.73;;;;;;;10.48;75.22;99548.22;5025523;28;20666;-61
2024/01/01 08:10:23;;;;;;;39.20;27.47;;;;;;;10.86;74.05;99556.59;5035124;28;20197;-61
2024/01/01 08:12:50;;;;;;;37.97;24.67;;;;;;;11.21;71.36;99563.53;5034334;28;20230;-62
2024/01/01 08:15:17;;;;;;;33.13;24.43;;;;;;;11.50;71.54;99557.91;5034989;28;20199;-60
2024/01/01 08:17:43;;;;;;;33.33;23.80;;;;;;;11.77;69.77;99559.66;5034850;28;20198;-61
2024/01/01 08:20:11;;;;;;;33.20;23.47;;;;;;;12.04;69.17;99556.00;5034852;28;20195;-62
2024/01/01 08:22:37;;;;;;;33.47;26.07;;;;;;;12.28;67.82;99554.56;5033990;28;20249;-62
2024/01/01 08:25:06;;;;;;;35.27;24.57;;;;;;;12.42;67.64;99548.22;5014503;28;20201;-61
2024/01/01 08:27:33;;;;;;;33.53;24.60;;;;;;;12.62;65.16;99557.81;5014823;28;20259;-62
2024/01/01 08:30:00;;;;;;;32.70;24.23;;;;;;;12.70;65.76;99562.13;5015089;28;20327;-62
2024/01/01 08:32:26;;;;;;;31.57;23.13;;;;;;;12.74;66.46;99556.16;5016846;28;20281;-62
2024/01/01 08:34:53;;;;;;;31.80;22.43;;;;;;;12.99;64.23;99565.16;5019846;28;20196;-62
2024/01/01 08:37:20;;;;;;;28.43;22.50;;;;;;;13.18;63.68;99561.63;5025316;28;20194;-62
2024/01/01 08:39:47;;;;;;;28.20;21.73;;;;;;;13.28;62.39;99561.97;5014437;28;20278;-64
2024/01/01 08:42:15;;;;;;;23.73;20.20;;;;;;;13.33;64.13;99558.69;5014209;28;20740;-64
2024/01/01 08:44:42;;;;;;;24.90;20.77;;;;;;;13.41;64.14;99566.44;5014632;28;20276;-63
2024/01/01 08:47:09;;;;;;;22.87;18.87;;;;;;;13.66;63.04;99560.16;5014258;28;20249;-63
2024/01/01 08:49:35;;;;;;;22.90;18.67;;;;;;;13.96;63.77;99561.19;5014393;28;20201;-62
2024/01/01 08:52:02;;;;;;;21.27;17.60;;;;;;;14.10;60.81;99557.38;5014141;28;20190;-63
2024/01/01 08:54:29;;;;;;;18.33;16.33;;;;;;;14.02;61.19;99546.16;5013942;28;20729;-62
2024/01/01 08:56:55;;;;;;;21.83;17.10;;;;;;;14.11;59.39;99544.84;5014414;28;20252;-62
2024/01/01 08:59:23;;;;;;;20.27;17.07;;;;;;;13.68;61.42;99542.06;5026227;28;20259;-62
2024/01/01 09:01:50;;;;;;;19.83;16.80;;;;;;;13.58;61.48;99533.72;5014201;28;20189;-64
2024/01/01 09:04:17;;;;;;;19.37;16.37;;;;;;;13.70;61.75;99532.00;5013510;28;20767;-64
2024/01/01 09:06:44;;;;;;;19.00;15.60;;;;;;;13.88;61.21;99531.28;5020348;28;20277;-64
2024/01/01 09:09:11;;;;;;;21.03;16.47;;;;;;;13.82;61.12;99519.63;5013350;28;20194;-64
2024/01/01 09:11:38;;;;;;;20.40;16.73;;;;;;;13.63;61.73;99528.56;5012587;28;20286;-63
2024/01/01 09:14:04;;;;;;;19.33;16.77;;;;;;;13.48;62.60;99516.53;5013407;28;20222;-64
2024/01/01 09:16:32;;;;;;;19.80;16.27;;;;;;;13.57;62.78;99512.59;5021016;28;20731;-63
2024/01/01 09:19:00;;;;;;;23.83;17.53;;;;;;;13.33;64.28;99508.81;5033645;28;20201;-65
2024/01/01 09:21:27;;;;;;;24.20;16.57;;;;;;;13.32;63.76;99509.81;5032827;28;20224;-64
2024/01/01 09:23:57;;;;;;;20.43;16.53;;;;;;;13.20;62.91;99492.88;5033584;28;20201;-64
2024/01/01 09:26:24;;;;;;;20.63;16.30;;;;;;;13.33;63.74;99490.16;5033651;28;20244;-65
2024/01/01 09:28:51;;;;;;;16.63;14.97;;;;;;;13.63;62.03;99496.53;5033484;28;20627;-62
2024/01/01 09:31:17;;;;;;;26.43;17.93;;;;;;;13.95;61.98;99495.47;5033261;28;20197;-62
2024/01/01 09:33:45;;;;;;;20.93;17.10;;;;;;;14.05;61.49;99487.78;5023888;28;20218;-63
2024/01/01 09:36:13;;;;;;;18.67;15.63;;;;;;;14.11;61.26;99494.94;5013344;28;20661;-62
2024/01/01 09:38:40;;;;;;;21.30;15.50;;;;;;;13.90;61.43;99487.31;5032064;28;20229;-62
2024/01/01 09:41:10;;;;;;;17.47;14.77;;;;;;;13.86;61.34;99487.94;5033368;28;20189;-61
2024/01/01 09:43:37;;;;;;;19.63;15.70;;;;;;;13.56;61.88;99490.41;5033726;28;20193;-63
2024/01/01 09:46:04;;;;;;;20.87;16.87;;;;;;;13.50;63.23;99480.59;5032046;28;20220;-66
2024/01/01 09:48:31;;;;;;;25.67;17.80;;;;;;;13.47;63.22;99483.69;5032173;28;20201;-66
2024/01/01 09:50:59;;;;;;;19.83;17.60;;;;;;;13.20;64.06;99476.88;5033136;28;20193;-65
2024/01/01 09:53:26;;;;;;;20.37;17.97;;;;;;;13.03;65.09;99480.25;5027471;28;20653;-64
2024/01/01 09:55:53;;;;;;;24.63;17.80;;;;;;;13.02;65.50;99478.63;5025070;28;20251;-65
2024/01/01 09:58:20;;;;;;;22.47;16.93;;;;;;;12.82;66.21;99451.97;5028530;28;20252;-65
2024/01/01 10:00:48;;;;;;;24.17;18.60;;;;;;;12.66;66.61;99455.13;5031420;28;20201;-66
2024/01/01 10:03:15;;;;;;;21.93;18.93;;;;;;;12.55;67.64;99453.13;5028006;28;20569;-64
2024/01/01 10:05:44;;;;;;;25.53;19.93;;;;;;;12.46;68.50;99459.69;5032451;28;20224;-64
2024/01/01 10:08:13;;;;;;;25.93;20.30;;;;;;;12.63;68.88;99454.72;5032299;28;20582;-64
2024/01/01 10:10:40;;;;;;;25.37;20.33;;;;;;;12.91;67.36;99457.91;5031259;28;20201;-64
2024/01/01 10:13:09;;;;;;;28.20;21.40;;;;;;;13.02;67.59;99455.41;5032447;28;20291;-64
2024/01/01 10:15:36;;;;;;;32.37;22.27;;;;;;;13.07;67.78;99444.13;5031743;28;20543;-65
2024/01/01 10:18:10;;;;;;;31.83;22.47;;;;;;;13.03;67.44;99435.72;5031801;28;20190;-64
2024/01/01 10:20:37;;;;;;;28.00;22.47;;;;;;;13.08;68.23;99427.09;5032242;28;20263;-63
2024/01/01 10:23:27;;;;;;;31.00;23.83;;;;;;;13.30;68.41;99425.72;5032711;28;20201;-64
2024/01/01 10:26:03;;;;;;;37.00;23.37;;;;;;;13.48;66.48;99423.94;5024355;28;20266;-63
2024/01/01 10:28:32;;;;;;;32.43;23.03;;;;;;;13.68;65.96;99423.81;5028497;28;20217;-65
2024/01/01 10:30:59;;;;;;;33.73;23.40;;;;;;;13.84;65.26;99412.59;5032626;28;20280;-63
2024/01/01 10:33:27;;;;;;;34.83;25.07;;;;;;;13.77;65.95;99407.28;5032376;28;20340;-63
2024/01/01 10:35:54;;;;;;;27.73;21.47;;;;;;;13.82;65.96;99398.63;5031149;28;20614;-64
2024/01/01 10:38:24;;;;;;;28.57;22.30;;;;;;;13.78;66.17;99392.09;5031755;28;20236;-64
2024/01/01 10:40:55;;;;;;;25.93;20.10;;;;;;;13.59;66.76;99388.56;5032252;28;20197;-65
2024/01/01 10:43:25;;;;;;;23.17;18.73;;;;;;;13.55;67.58;99382.03;5032501;28;20185;-65
2024/01/01 10:45:54;;;;;;;24.27;18.93;;;;;;;13.56;67.96;99383.66;5032018;28;20191;-63
2024/01/01 10:48:23;;;;;;;27.97;18.23;;;;;;;13.35;68.29;99381.34;5031765;28;20276;-65
2024/01/01 10:51:04;;;;;;;26.97;19.43;;;;;;;13.18;68.52;99376.75;5028821;28;20225;-67
2024/01/01 10:53:53;;;;;;;24.27;17.17;;;;;;;13.20;69.16;99378.19;5011316;28;20288;-65
2024/01/01 10:56:30;;;;;;;32.23;19.80;;;;;;;13.28;69.95;99369.09;5009786;28;20248;-64
2024/01/01 10:59:08;;;;;;;24.67;19.10;;;;;;;13.52;69.06;99366.44;5012301;28;20248;-63
2024/01/01 11:01:37;;;;;;;21.17;18.47;;;;;;;13.71;68.47;99360.13;5021356;28;20553;-64
2024/01/01 11:04:04;;;;;;;19.87;15.90;;;;;;;13.84;66.82;99359.19;5031495;28;20219;-65
2024/01/01 11:06:33;;;;;;;21.93;16.83;;;;;;;13.73;67.54;99354.56;5032040;28;20197;-64
2024/01/01 11:09:30;;;;;;;20.13;15.37;;;;;;;13.58;67.31;99346.06;5029556;28;20673;-62
2024/01/01 11:12:00;;;;;;;20.90;16.67;;;;;;;13.57;68.21;99342.59;5012091;28;20190;-65
2024/01/01 11:14:28;;;;;;;24.83;17.10;;;;;;;13.69;68.01;99340.81;5011183;28;20829;-64
2024/01/01 11:16:56;;;;;;;23.40;17.40;;;;;;;13.82;67.08;99346.06;5017727;28;20201;-63
2024/01/01 11:19:36;;;;;;;17.97;15.53;;;;;;;14.01;67.09;99339.69;5024641;28;20194;-64
2024/01/01 11:22:35;;;;;;;19.63;16.03;;;;;;;14.31;66.08;99335.28;5031217;28;20189;-65